Aérodrome :
LOGIN :

S'inscrire | Disclaimer

   EN    FR    IT 

 










Légende :    VFR   VFR Marginal   IFR   IFR Intensif   IFR Très Intensif
Visi : 
Plafond : 
>= 8 km
>= 3000ft
5 à 8 km
1000 à 3000 ft
1500m à 5 km
500 à 1000 ft
800 à 1500m
200 à 500 ft
< 800m
< 200 ft
Symboles :   Orages  Brouillard  Fortes neiges  Fortes précipitations  Vent > 20 kt
SIGMETs :   Divers  Orages  Givrage  Turbulence  Onde Orograph.  Cendres Volcan.






- Altitude de l'aérodrome : 10 ft
- Code IATA : AAL


EKYT - Aalborg

DERNIER METAR :
  • 280120Z AUTO 04008KT 9999 FEW140/// 14/13 Q1011

METARs EXPIRÉS :
  • 280050Z AUTO 04007KT 9999 NCD 14/13 Q1011
  • 280020Z AUTO 05008KT 9999 NCD 14/13 Q1011
  • 272350Z AUTO 06009KT 9999 NCD 14/13 Q1011
  • 272320Z AUTO 05008KT 9999 FEW120/// 14/13 Q1011
  • 272250Z AUTO 05010KT 9999 SCT097/// BKN110/// 14/13 Q1011

TAF TAF EKYT
Valide du 28 à 00h jusqu'au 29 à 00h UTC


272305Z 2800/2824 04012KT 9999 BKN015
TEMPO 2800/2810 6000 BKN008
TEMPO 2816/2822 6000 -RA BKN008



MET'MAP, la Météo Aéronautique d'un coup d'oeil ! - Copyright ORBIFLY Décembre 2007 - Disclaimer

ORBIFLY MET'MAP TEAM :

Programmation & Développement : Alexandra Zaïnal
Sur une idée originale de : Baudouin d'Aumeries
Assistance à la programmation : Marc-Olivier Méhu
Soutien technique & logistique : Manuel Goepfert

Contact : metmap@orbifly.com




SOURCES & CREDITS :

   NOAA